createdAt,value
2018-12-05T00:01:19.625Z,71.10
2018-12-05T00:03:31.465Z,82.47
2018-12-05T00:05:41.751Z,74.00
2018-12-05T00:07:52.175Z,87.17
2018-12-05T00:09:59.090Z,67.73
2018-12-05T00:12:12.287Z,72.47
2018-12-05T00:14:18.893Z,63.27
2018-12-05T00:16:28.975Z,68.03
2018-12-05T00:18:42.783Z,69.17
2018-12-05T00:21:00.879Z,97.17
2018-12-05T00:23:24.650Z,72.63
2018-12-05T00:25:40.412Z,77.17
2018-12-05T00:27:45.998Z,68.53
2018-12-05T00:29:55.959Z,55.60
2018-12-05T00:32:11.397Z,67.53
2018-12-05T00:34:27.721Z,73.83
2018-12-05T00:36:37.879Z,77.47
2018-12-05T00:38:45.262Z,62.13
2018-12-05T00:41:03.474Z,69.33
2018-12-05T00:43:12.983Z,67.00
2018-12-05T00:45:28.803Z,69.03
2018-12-05T00:47:41.641Z,58.43
2018-12-05T00:49:49.359Z,55.13
2018-12-05T00:51:55.224Z,67.00
2018-12-05T00:54:05.058Z,71.90
2018-12-05T00:56:14.845Z,61.90
2018-12-05T00:58:21.563Z,67.27
2018-12-05T01:00:30.648Z,65.20
2018-12-05T01:02:33.886Z,57.90
2018-12-05T01:04:45.595Z,81.90
2018-12-05T01:06:55.187Z,72.77
2018-12-05T01:09:12.815Z,70.43
2018-12-05T01:11:16.287Z,62.60
2018-12-05T01:13:23.944Z,65.43
2018-12-05T01:15:33.827Z,59.17
2018-12-05T01:17:43.575Z,71.63
2018-12-05T01:19:48.832Z,69.60
2018-12-05T01:24:24.534Z,82.97
2018-12-05T01:26:32.986Z,88.03
2018-12-05T01:28:41.508Z,85.47
2018-12-05T01:30:48.642Z,73.27
2018-12-05T01:32:53.102Z,75.17
2018-12-05T01:34:58.242Z,79.10
2018-12-05T01:37:07.166Z,85.93
2018-12-05T01:39:18.206Z,86.83
2018-12-05T01:41:28.212Z,68.67
2018-12-05T01:43:37.474Z,63.33
2018-12-05T01:45:47.718Z,73.10
2018-12-05T01:47:55.237Z,64.23
2018-12-05T01:50:13.057Z,77.53
2018-12-05T01:52:17.769Z,73.50
2018-12-05T01:54:23.578Z,70.33
2018-12-05T01:56:33.851Z,76.47
2018-12-05T01:58:46.354Z,75.30
2018-12-05T02:01:27.734Z,87.73
2018-12-05T02:03:36.501Z,84.03
2018-12-05T02:06:16.985Z,78.87
2018-12-05T02:08:27.461Z,86.60
2018-12-05T02:10:31.612Z,75.80
2018-12-05T02:12:41.935Z,86.90
2018-12-05T02:14:58.676Z,94.40
2018-12-05T02:17:06.220Z,92.67
2018-12-05T02:32:11.674Z,99.20
2018-12-05T02:34:18.427Z,85.10
2018-12-05T02:36:21.740Z,100.63
2018-12-05T02:41:02.266Z,91.00
2018-12-05T02:43:13.567Z,86.40
2018-12-05T02:45:34.415Z,87.10
2018-12-05T02:47:50.648Z,83.27
2018-12-05T02:50:08.338Z,74.43
2018-12-05T02:52:28.757Z,101.60
2018-12-05T02:54:45.983Z,93.77
2018-12-05T02:57:09.600Z,78.87
2018-12-05T02:59:12.965Z,82.03
2018-12-05T03:01:19.143Z,95.30
2018-12-05T03:03:22.641Z,83.33
2018-12-05T03:05:29.257Z,84.90
2018-12-05T03:07:38.014Z,91.60
2018-12-05T03:10:00.159Z,82.17
2018-12-05T03:12:14.547Z,87.70
2018-12-05T03:14:20.739Z,90.90
2018-12-05T03:16:29.510Z,96.03
2018-12-05T03:18:34.556Z,95.27
2018-12-05T03:20:37.906Z,99.93
2018-12-05T03:22:43.519Z,90.27
2018-12-05T03:24:49.721Z,72.40
2018-12-05T03:26:54.496Z,74.13
2018-12-05T03:28:58.715Z,77.20
2018-12-05T03:31:06.447Z,83.13
2018-12-05T03:33:11.418Z,86.40
2018-12-05T03:35:21.170Z,84.73
2018-12-05T03:37:26.186Z,87.87
2018-12-05T03:39:30.269Z,78.70
2018-12-05T03:41:37.113Z,87.97
2018-12-05T03:43:48.463Z,79.80
2018-12-05T03:45:54.068Z,74.37
2018-12-05T03:47:57.388Z,87.50
2018-12-05T03:50:06.109Z,78.57
2018-12-05T03:52:11.610Z,94.37
2018-12-05T03:54:17.700Z,83.57
2018-12-05T03:56:21.037Z,75.70
2018-12-05T03:58:24.517Z,110.17
2018-12-05T04:00:38.343Z,98.70
2018-12-05T04:02:50.209Z,66.23
2018-12-05T04:05:05.230Z,66.93
2018-12-05T04:10:17.066Z,87.77
2018-12-05T04:12:26.913Z,72.97
2018-12-05T04:15:59.661Z,73.40
2018-12-05T04:18:44.304Z,81.47
2018-12-05T04:20:53.525Z,81.83
2018-12-05T04:23:10.499Z,86.47
2018-12-05T04:25:26.223Z,78.43
2018-12-05T04:27:34.954Z,84.57
2018-12-05T04:29:38.260Z,97.73
2018-12-05T04:31:41.663Z,83.43
2018-12-05T04:33:46.668Z,79.83
2018-12-05T04:35:50.784Z,102.60
2018-12-05T04:38:01.666Z,71.97
2018-12-05T04:40:08.347Z,82.87
2018-12-05T04:42:19.731Z,70.37
2018-12-05T04:44:23.556Z,95.17
2018-12-05T04:46:26.708Z,99.93
2018-12-05T04:48:30.673Z,89.40
2018-12-05T04:50:34.511Z,76.67
2018-12-05T04:52:37.777Z,80.13
2018-12-05T04:54:41.062Z,93.50
2018-12-05T04:56:44.272Z,85.53
2018-12-05T04:58:50.009Z,99.47
2018-12-05T05:01:04.555Z,87.93
2018-12-05T05:06:05.883Z,90.73
2018-12-05T05:08:26.772Z,91.70
2018-12-05T05:16:57.739Z,100.37
2018-12-05T05:21:55.685Z,93.43
2018-12-05T05:24:03.047Z,84.60
2018-12-05T05:26:16.840Z,88.83
2018-12-05T05:28:31.992Z,72.17
2018-12-05T05:30:39.868Z,80.60
2018-12-05T05:32:48.613Z,80.03
2018-12-05T05:34:53.933Z,76.20
2018-12-05T05:37:06.239Z,86.93
2018-12-05T05:39:15.395Z,89.63
2018-12-05T05:41:25.342Z,92.70
2018-12-05T05:43:30.307Z,91.67
2018-12-05T05:45:47.165Z,104.30
2018-12-05T05:48:00.878Z,92.87
2018-12-05T05:50:25.575Z,91.47
2018-12-05T05:52:47.270Z,85.13
2018-12-05T05:55:07.463Z,88.57
2018-12-05T05:57:21.067Z,95.70
2018-12-05T05:59:44.593Z,86.47
2018-12-05T06:02:13.441Z,89.97
2018-12-05T06:45:24.168Z,93.37
2018-12-05T06:55:39.038Z,102.57
2018-12-05T06:57:39.315Z,102.00
2018-12-05T06:59:42.599Z,108.10
2018-12-05T07:01:47.589Z,120.23
2018-12-05T07:03:50.866Z,101.03
2018-12-05T07:05:54.595Z,105.53
2018-12-05T07:07:57.781Z,101.00
2018-12-05T07:12:36.727Z,109.40
2018-12-05T07:14:40.717Z,123.67
2018-12-05T07:16:45.015Z,112.60
2018-12-05T07:18:48.587Z,118.67
2018-12-05T07:20:52.252Z,138.77
2018-12-05T07:22:55.611Z,120.40
2018-12-05T07:24:58.893Z,124.30
2018-12-05T07:27:02.126Z,123.73
2018-12-05T07:29:05.788Z,102.23
2018-12-05T07:31:09.669Z,159.43
2018-12-05T07:33:13.251Z,122.00
2018-12-05T07:35:16.595Z,128.87
2018-12-05T07:37:20.424Z,111.73
2018-12-05T07:39:23.734Z,120.13
2018-12-05T07:41:27.033Z,125.67
2018-12-05T07:43:33.366Z,134.10
2018-12-05T07:45:36.668Z,102.90
2018-12-05T07:47:40.691Z,116.30
2018-12-05T07:49:56.622Z,121.13
2018-12-05T07:52:06.627Z,121.47
2018-12-05T07:54:10.673Z,114.93
2018-12-05T07:56:13.973Z,115.43
2018-12-05T07:58:18.077Z,130.93
2018-12-05T08:00:22.200Z,118.33
2018-12-05T08:02:26.951Z,126.33
2018-12-05T08:04:30.268Z,130.10
2018-12-05T08:06:53.984Z,127.20
2018-12-05T08:08:58.687Z,120.00
2018-12-05T08:14:24.167Z,107.43
2018-12-05T08:16:40.582Z,117.73
2018-12-05T08:18:51.129Z,132.53
2018-12-05T08:21:01.435Z,114.70
2018-12-05T08:23:09.324Z,124.13
2018-12-05T08:25:14.787Z,119.40
2018-12-05T08:27:22.276Z,121.43
2018-12-05T08:29:25.651Z,92.27
2018-12-05T08:31:29.281Z,96.97
2018-12-05T08:33:32.724Z,81.87
2018-12-05T08:35:36.075Z,96.90
2018-12-05T08:37:39.376Z,81.63
2018-12-05T08:39:42.655Z,95.67
2018-12-05T08:41:56.529Z,88.10
2018-12-05T08:44:05.595Z,88.90
2018-12-05T08:46:17.043Z,94.17
2018-12-05T08:48:31.387Z,89.20
2018-12-05T08:50:34.855Z,84.23
2018-12-05T08:52:41.143Z,81.97
2018-12-05T08:54:50.618Z,90.13
2018-12-05T08:57:00.569Z,76.73
2018-12-05T08:59:04.229Z,84.20
2018-12-05T09:03:30.280Z,103.60
2018-12-05T09:05:38.072Z,113.23
2018-12-05T09:07:47.488Z,99.20
2018-12-05T09:10:00.836Z,93.13
2018-12-05T09:14:18.584Z,90.50
2018-12-05T09:16:22.813Z,79.97
2018-12-05T09:18:33.199Z,86.90
2018-12-05T09:20:42.854Z,77.90
2018-12-05T09:22:54.560Z,84.97
2018-12-05T09:25:00.438Z,83.43
2018-12-05T09:27:09.121Z,92.67
2018-12-05T09:29:13.002Z,64.40
2018-12-05T09:31:19.700Z,68.30
2018-12-05T09:35:43.032Z,87.30
2018-12-05T09:37:53.111Z,87.27
2018-12-05T09:40:09.188Z,75.63
2018-12-05T09:42:17.411Z,72.50
2018-12-05T09:44:29.687Z,86.57
2018-12-05T09:46:37.429Z,70.10
2018-12-05T09:48:48.398Z,99.23
2018-12-05T09:50:59.169Z,68.10
2018-12-05T09:55:16.132Z,72.90
2018-12-05T09:57:28.832Z,67.07
2018-12-05T09:59:34.698Z,88.97
2018-12-05T10:01:42.642Z,80.43
2018-12-05T10:03:48.336Z,68.53
2018-12-05T10:08:13.498Z,58.37
2018-12-05T10:10:21.732Z,53.43
2018-12-05T10:14:45.271Z,54.87
2018-12-05T10:19:09.760Z,61.93
2018-12-05T10:21:19.883Z,64.90
2018-12-05T10:23:29.473Z,62.77
2018-12-05T10:25:37.250Z,68.33
2018-12-05T10:30:07.009Z,42.10
2018-12-05T10:34:36.662Z,61.10
2018-12-05T10:36:45.203Z,62.83
2018-12-05T10:41:02.243Z,46.57
2018-12-05T10:43:15.685Z,49.77
2018-12-05T10:45:23.025Z,42.27
2018-12-05T10:49:41.907Z,47.97
2018-12-05T10:51:54.112Z,51.70
2018-12-05T10:54:07.453Z,72.93
2018-12-05T10:56:20.174Z,40.43
2018-12-05T10:58:31.846Z,55.17
2018-12-05T11:00:44.534Z,47.60
2018-12-05T11:02:59.180Z,42.23
2018-12-05T11:05:13.334Z,43.77
2018-12-05T11:30:59.622Z,40.90
2018-12-05T11:33:02.782Z,35.10
2018-12-05T11:37:23.031Z,33.00
2018-12-05T11:39:27.273Z,35.47
2018-12-05T11:41:54.027Z,25.73
2018-12-05T11:57:09.760Z,31.23
2018-12-05T11:59:14.739Z,28.90
2018-12-05T12:01:17.963Z,33.23
2018-12-05T12:12:03.877Z,22.60
2018-12-05T12:14:13.835Z,23.30
2018-12-05T12:16:20.305Z,17.13
2018-12-05T12:18:27.604Z,15.30
2018-12-05T12:20:33.738Z,16.50
2018-12-05T12:23:11.959Z,21.57
2018-12-05T12:25:32.506Z,15.37
2018-12-05T12:27:45.186Z,15.00
2018-12-05T12:29:53.919Z,24.97
2018-12-05T12:32:14.689Z,21.03
2018-12-05T12:51:55.634Z,23.67
2018-12-05T12:57:16.259Z,11.37
2018-12-05T12:59:52.146Z,28.87
2018-12-05T13:02:16.185Z,10.80
2018-12-05T13:04:29.350Z,32.53
2018-12-05T13:08:51.345Z,16.20
2018-12-05T13:11:10.078Z,16.23
2018-12-05T13:13:23.652Z,22.33
2018-12-05T13:15:35.091Z,15.10
2018-12-05T13:17:42.223Z,13.53
2018-12-05T13:22:42.497Z,21.13
2018-12-05T13:24:55.743Z,20.50
2018-12-05T13:27:18.083Z,20.00
2018-12-05T14:11:12.070Z,14.63
2018-12-05T14:15:41.224Z,19.20
2018-12-05T14:18:14.531Z,16.70
2018-12-05T14:21:37.814Z,17.83
2018-12-05T14:23:41.191Z,12.80
2018-12-05T14:34:25.902Z,12.00
2018-12-05T14:39:08.526Z,19.70
2018-12-05T14:41:25.472Z,19.83
2018-12-05T14:43:38.590Z,27.67
2018-12-05T14:45:49.385Z,21.43
2018-12-05T14:47:58.020Z,24.77
2018-12-05T14:50:16.712Z,20.90
2018-12-05T14:52:28.415Z,23.93
2018-12-05T14:54:41.620Z,20.83
2018-12-05T14:56:58.062Z,20.73
2018-12-05T14:59:11.566Z,13.83
2018-12-05T15:01:29.750Z,16.47
2018-12-05T15:03:43.408Z,18.90
2018-12-05T15:05:54.925Z,15.37
2018-12-05T15:08:06.188Z,20.40
2018-12-05T15:10:31.502Z,20.90
2018-12-05T15:12:47.721Z,21.27
2018-12-05T15:14:57.455Z,14.83
2018-12-05T15:17:09.243Z,17.23
2018-12-05T15:19:25.520Z,15.23
2018-12-05T15:21:37.707Z,16.43
2018-12-05T15:23:55.216Z,15.20
2018-12-05T15:26:18.039Z,14.97
2018-12-05T15:30:57.625Z,22.03
2018-12-05T15:33:20.214Z,19.00
2018-12-05T15:35:42.158Z,12.63
2018-12-05T15:37:56.841Z,13.50
2018-12-05T15:40:11.795Z,17.33
2018-12-05T15:42:35.790Z,14.20
2018-12-05T15:48:29.925Z,22.60
2018-12-05T15:53:02.494Z,20.83
2018-12-05T15:55:07.575Z,21.60
2018-12-05T15:57:12.180Z,16.50
2018-12-05T15:59:16.913Z,23.93
2018-12-05T16:01:20.616Z,24.07
2018-12-05T16:03:26.296Z,23.20
2018-12-05T16:05:31.861Z,28.40
2018-12-05T16:07:36.475Z,18.00
2018-12-05T16:09:40.421Z,20.80
2018-12-05T16:11:44.267Z,12.57
2018-12-05T16:13:50.524Z,19.00
2018-12-05T16:15:54.113Z,9.97
2018-12-05T16:17:58.259Z,19.20
2018-12-05T16:20:02.153Z,12.80
2018-12-05T16:22:06.139Z,14.90
2018-12-05T16:24:09.786Z,16.03
2018-12-05T16:26:13.503Z,15.70
2018-12-05T16:28:17.258Z,29.47
2018-12-05T16:30:20.773Z,13.90
2018-12-05T16:32:23.902Z,25.37
2018-12-05T16:34:27.087Z,22.63
2018-12-05T16:36:30.434Z,18.30
2018-12-05T16:38:33.936Z,15.27
2018-12-05T16:40:37.352Z,21.60
2018-12-05T16:42:40.591Z,13.23
2018-12-05T16:44:44.052Z,20.80
2018-12-05T16:46:47.296Z,16.53
2018-12-05T16:48:50.498Z,28.07
2018-12-05T16:50:53.875Z,17.27
2018-12-05T16:52:57.144Z,19.60
2018-12-05T16:55:00.527Z,20.90
2018-12-05T16:57:03.710Z,21.63
2018-12-05T16:59:06.967Z,25.10
2018-12-05T17:01:10.297Z,21.60
2018-12-05T17:03:17.062Z,20.70
2018-12-05T17:05:20.362Z,13.47
2018-12-05T17:07:23.533Z,17.43
2018-12-05T17:09:26.741Z,23.00
2018-12-05T17:11:29.942Z,23.00
2018-12-05T17:13:35.034Z,28.70
2018-12-05T17:15:38.258Z,14.83
2018-12-05T17:17:41.390Z,14.07
2018-12-05T17:19:46.239Z,31.27
2018-12-05T17:21:49.548Z,21.83
2018-12-05T17:23:52.782Z,23.53
2018-12-05T17:25:56.423Z,16.50
2018-12-05T17:27:59.707Z,19.30
2018-12-05T17:30:02.931Z,23.77
2018-12-05T17:32:06.250Z,20.70
2018-12-05T17:34:09.473Z,16.80
2018-12-05T17:36:12.619Z,15.13
2018-12-05T17:38:15.742Z,19.50
2018-12-05T17:40:18.952Z,19.63
2018-12-05T17:42:22.192Z,18.90
2018-12-05T17:44:25.385Z,21.53
2018-12-05T17:46:28.531Z,26.23
2018-12-05T17:48:31.682Z,19.50
2018-12-05T17:50:34.806Z,16.93
2018-12-05T17:52:37.950Z,19.83
2018-12-05T17:54:41.114Z,17.33
2018-12-05T17:56:44.244Z,20.27
2018-12-05T17:58:47.450Z,27.43
2018-12-05T18:00:50.607Z,30.70
2018-12-05T18:02:53.743Z,18.77
2018-12-05T18:04:56.946Z,22.00
2018-12-05T18:07:00.184Z,27.43
2018-12-05T18:09:04.142Z,15.10
2018-12-05T18:11:07.281Z,19.23
2018-12-05T18:13:12.391Z,17.17
2018-12-05T18:15:15.522Z,20.70
2018-12-05T18:17:18.653Z,13.77
2018-12-05T18:19:21.767Z,18.53
2018-12-05T18:21:24.903Z,25.17
2018-12-05T18:23:28.037Z,17.27
2018-12-05T18:25:31.160Z,22.20
2018-12-05T18:27:34.480Z,22.57
2018-12-05T18:29:37.617Z,21.40
2018-12-05T18:31:40.743Z,26.70
2018-12-05T18:33:43.877Z,20.00
2018-12-05T18:35:47.087Z,19.53
2018-12-05T18:37:50.226Z,23.60
2018-12-05T18:39:53.349Z,29.47
2018-12-05T18:41:56.476Z,21.50
2018-12-05T18:43:59.680Z,20.00
2018-12-05T18:46:02.900Z,21.50
2018-12-05T18:48:06.069Z,23.80
2018-12-05T18:50:09.370Z,25.37
2018-12-05T18:52:12.507Z,20.80
2018-12-05T18:54:15.642Z,30.67
2018-12-05T18:56:18.863Z,22.10
2018-12-05T18:58:22.971Z,18.73
2018-12-05T19:00:26.210Z,20.37
2018-12-05T19:02:31.499Z,18.60
2018-12-05T19:04:35.341Z,19.47
2018-12-05T19:06:39.569Z,17.17
2018-12-05T19:08:42.832Z,17.20
2018-12-05T19:10:46.339Z,15.43
2018-12-05T19:12:50.266Z,22.93
2018-12-05T19:14:54.999Z,15.40
2018-12-05T19:16:58.258Z,14.07
2018-12-05T19:19:02.063Z,18.33
2018-12-05T19:21:05.862Z,26.57
2018-12-05T19:23:08.950Z,21.57
2018-12-05T19:25:12.190Z,20.93
2018-12-05T19:27:15.366Z,16.67
2018-12-05T19:29:18.766Z,17.90
2018-12-05T19:31:22.056Z,16.53
2018-12-05T19:33:25.232Z,20.20
2018-12-05T19:35:28.443Z,21.87
2018-12-05T19:37:31.822Z,16.40
2018-12-05T19:39:34.922Z,19.80
2018-12-05T19:41:38.030Z,18.10
2018-12-05T19:43:41.130Z,14.80
2018-12-05T19:45:44.876Z,21.43
2018-12-05T19:47:48.047Z,17.50
2018-12-05T19:49:51.336Z,21.10
2018-12-05T19:51:54.507Z,16.40
2018-12-05T19:53:57.602Z,23.90
2018-12-05T19:56:00.835Z,17.37
2018-12-05T19:58:04.015Z,13.63
2018-12-05T20:00:09.398Z,16.67
2018-12-05T20:02:12.562Z,14.80
2018-12-05T20:04:15.717Z,16.83
2018-12-05T20:06:18.806Z,12.17
2018-12-05T20:08:21.967Z,14.33
2018-12-05T20:10:25.214Z,13.30
2018-12-05T20:12:28.462Z,14.67
2018-12-05T20:14:31.545Z,12.93
2018-12-05T20:16:34.712Z,16.17
2018-12-05T20:18:37.888Z,14.67
2018-12-05T20:20:41.142Z,16.50
2018-12-05T20:22:44.242Z,25.00
2018-12-05T20:24:47.330Z,14.03
2018-12-05T20:26:50.429Z,13.50
2018-12-05T20:28:53.587Z,12.90
2018-12-05T20:30:56.769Z,15.83
2018-12-05T20:32:59.854Z,15.37
2018-12-05T20:35:03.063Z,18.73
2018-12-05T20:37:06.223Z,15.87
2018-12-05T20:39:10.529Z,14.57
2018-12-05T20:41:13.771Z,12.80
2018-12-05T20:43:16.862Z,17.13
2018-12-05T20:45:20.022Z,12.43
2018-12-05T20:47:23.183Z,12.60
2018-12-05T20:49:26.347Z,15.43
2018-12-05T20:51:29.596Z,15.00
2018-12-05T20:53:32.688Z,12.40
2018-12-05T20:55:35.850Z,11.97
2018-12-05T20:57:39.047Z,9.13
2018-12-05T20:59:43.100Z,8.13
2018-12-05T21:01:46.507Z,12.53
2018-12-05T21:03:49.627Z,11.07
2018-12-05T21:05:52.799Z,11.40
2018-12-05T21:07:55.902Z,12.00
2018-12-05T21:09:59.083Z,12.80
2018-12-05T21:12:02.252Z,13.20
2018-12-05T21:14:05.476Z,11.07
2018-12-05T21:16:08.590Z,9.00
2018-12-05T21:18:11.810Z,17.20
2018-12-05T21:20:15.039Z,11.47
2018-12-05T21:22:18.250Z,11.57
2018-12-05T21:24:21.455Z,8.63
2018-12-05T21:26:24.587Z,9.37
2018-12-05T21:28:27.708Z,10.50
2018-12-05T21:30:30.834Z,10.40
2018-12-05T21:32:34.001Z,8.00
2018-12-05T21:34:37.134Z,11.93
2018-12-05T21:36:40.346Z,9.90
2018-12-05T21:38:43.476Z,12.20
2018-12-05T21:40:46.599Z,9.90
2018-12-05T21:42:49.719Z,11.80
2018-12-05T21:44:52.843Z,12.17
2018-12-05T21:46:56.019Z,14.50
2018-12-05T21:48:59.156Z,18.83
2018-12-05T21:51:02.274Z,27.43
2018-12-05T21:53:16.183Z,12.80
2018-12-05T21:55:24.239Z,11.23
2018-12-05T21:57:35.585Z,7.87
2018-12-05T21:59:43.807Z,9.57
2018-12-05T22:01:51.613Z,10.07
2018-12-05T22:03:58.682Z,19.20
2018-12-05T22:06:08.303Z,9.90
2018-12-05T22:08:20.186Z,11.20
2018-12-05T22:10:50.492Z,9.50
2018-12-05T22:13:02.561Z,10.80
2018-12-05T22:15:10.730Z,8.10
2018-12-05T22:17:15.965Z,10.30
2018-12-05T22:19:23.106Z,11.10
2018-12-05T22:21:31.439Z,11.77
2018-12-05T22:23:38.913Z,10.33
2018-12-05T22:25:44.360Z,14.30
2018-12-05T22:27:51.291Z,13.30
2018-12-05T22:30:04.809Z,10.03
2018-12-05T22:32:20.814Z,14.20
2018-12-05T22:34:40.674Z,11.23
2018-12-05T22:37:04.316Z,9.70
2018-12-05T22:39:38.742Z,15.00
2018-12-05T22:42:06.324Z,23.40
2018-12-05T22:49:51.377Z,13.03
2018-12-05T22:52:13.331Z,13.10
2018-12-05T22:54:21.680Z,9.60
2018-12-05T22:56:43.596Z,12.63
2018-12-05T22:59:02.734Z,11.40
2018-12-05T23:01:18.479Z,13.20
2018-12-05T23:03:25.249Z,15.70
2018-12-05T23:05:33.276Z,12.80
2018-12-05T23:07:46.336Z,14.67
2018-12-05T23:09:51.565Z,12.40
2018-12-05T23:12:01.663Z,12.70
2018-12-05T23:14:10.060Z,12.50
2018-12-05T23:16:14.801Z,10.47
2018-12-05T23:18:26.576Z,11.53
2018-12-05T23:20:42.079Z,9.80
2018-12-05T23:22:54.505Z,7.83
2018-12-05T23:25:07.907Z,11.70
2018-12-05T23:27:25.518Z,12.20
2018-12-05T23:29:35.888Z,19.03
2018-12-05T23:31:50.439Z,12.07
2018-12-05T23:34:05.188Z,14.20
2018-12-05T23:36:23.167Z,19.00
2018-12-05T23:38:38.649Z,9.37
2018-12-05T23:40:56.945Z,14.70
2018-12-05T23:43:14.330Z,16.43
2018-12-05T23:45:35.134Z,16.40
2018-12-05T23:47:55.940Z,14.20
2018-12-05T23:50:07.095Z,14.03
2018-12-05T23:52:20.762Z,24.63
2018-12-05T23:54:44.977Z,17.00
2018-12-05T23:56:58.559Z,24.70
2018-12-05T23:59:08.232Z,11.53
